Richmond Heights, Missouri
Current Conditions -  °F | °C
As of 5:51 AM on Friday 28 Nov 2014 (Local Time) from KSTL Reporting Station
Few Clouds Few Clouds  
Wind Chill: -9°   Ceiling: Unl
Heat Index: -3°   Visibility: 8mi
Dew Point: -6°   Wind: 13mph
Humidity: 78%   Direction: 130°SE
Pressure: 30.28"   Gusts: NA
Location:  38.63°N, 90.32°W
Report Text: KSTL 281151Z 13011KT 8SM FEW130 M03/M06 A3028 RMK AO2 SLP266 T10281061 11028 21033 56030 $
Loading
Personal Weather Stations






























Interactive Weather Map New forecast layout! Learn more

10-Day Weather Forecast

Advertisements
Track Severe Weather on mobile